createdAt,value
2023-09-27T00:00:31.884Z,14.15
2023-09-27T00:03:00.833Z,14.00
2023-09-27T00:05:31.160Z,14.52
2023-09-27T00:08:00.386Z,14.05
2023-09-27T00:10:29.547Z,13.63
2023-09-27T00:12:58.116Z,14.30
2023-09-27T00:15:26.852Z,13.27
2023-09-27T00:17:55.661Z,13.80
2023-09-27T00:20:25.896Z,14.18
2023-09-27T00:22:56.549Z,14.73
2023-09-27T00:25:25.228Z,11.35
2023-09-27T00:27:53.787Z,14.23
2023-09-27T00:30:22.291Z,13.43
2023-09-27T00:32:50.938Z,13.25
2023-09-27T00:35:22.822Z,12.85
2023-09-27T00:37:53.321Z,13.35
2023-09-27T00:40:26.035Z,12.23
2023-09-27T00:42:55.144Z,13.00
2023-09-27T00:45:23.689Z,12.23
2023-09-27T00:47:53.719Z,10.73
2023-09-27T00:50:22.648Z,10.40
2023-09-27T00:52:51.843Z,13.20
2023-09-27T00:55:23.311Z,13.27
2023-09-27T00:57:55.348Z,10.38
2023-09-27T01:00:24.753Z,14.10
2023-09-27T01:02:54.659Z,12.45
2023-09-27T01:05:23.499Z,11.32
2023-09-27T01:07:52.814Z,13.10
2023-09-27T01:10:22.940Z,12.73
2023-09-27T01:12:52.115Z,11.05
2023-09-27T01:15:20.725Z,13.45
2023-09-27T01:17:56.136Z,10.88
2023-09-27T01:20:24.925Z,11.88
2023-09-27T01:22:59.444Z,10.43
2023-09-27T01:25:31.473Z,12.88
2023-09-27T01:28:00.909Z,12.32
2023-09-27T01:30:34.082Z,13.82
2023-09-27T01:33:06.797Z,12.95
2023-09-27T01:35:36.097Z,13.00
2023-09-27T01:38:07.769Z,13.38
2023-09-27T01:40:39.040Z,14.38
2023-09-27T01:43:08.200Z,14.43
2023-09-27T01:45:37.545Z,12.90
2023-09-27T01:48:07.494Z,15.13
2023-09-27T01:50:37.740Z,13.98
2023-09-27T01:53:08.015Z,13.70
2023-09-27T01:55:37.163Z,12.85
2023-09-27T01:58:06.454Z,14.20
2023-09-27T02:00:35.105Z,13.85
2023-09-27T02:03:05.290Z,13.75
2023-09-27T02:05:34.279Z,15.45
2023-09-27T02:08:03.262Z,12.05
2023-09-27T02:10:33.192Z,14.77
2023-09-27T02:13:01.709Z,13.75
2023-09-27T02:15:30.371Z,13.77
2023-09-27T02:17:58.913Z,15.75
2023-09-27T02:20:27.929Z,14.60
2023-09-27T02:22:57.281Z,12.48
2023-09-27T02:25:26.880Z,12.80
2023-09-27T02:27:56.937Z,11.50
2023-09-27T02:30:25.450Z,11.77
2023-09-27T02:32:54.156Z,13.32
2023-09-27T02:35:23.302Z,10.98
2023-09-27T02:37:51.918Z,12.85
2023-09-27T02:40:20.555Z,11.88
2023-09-27T02:42:49.657Z,13.38
2023-09-27T02:45:19.853Z,11.68
2023-09-27T02:47:48.710Z,13.73
2023-09-27T02:50:17.120Z,13.43
2023-09-27T02:52:46.050Z,13.10
2023-09-27T02:55:15.611Z,13.82
2023-09-27T02:57:50.128Z,13.98
2023-09-27T03:00:20.929Z,13.02
2023-09-27T03:02:50.170Z,13.30
2023-09-27T03:05:19.613Z,11.20
2023-09-27T03:07:49.620Z,14.20
2023-09-27T03:10:19.438Z,13.57
2023-09-27T03:12:50.642Z,11.65
2023-09-27T03:15:21.215Z,12.40
2023-09-27T03:17:50.770Z,12.18
2023-09-27T03:20:21.036Z,13.60
2023-09-27T03:22:50.245Z,13.43
2023-09-27T03:25:19.728Z,13.98
2023-09-27T03:27:49.048Z,13.68
2023-09-27T03:30:20.285Z,12.88
2023-09-27T03:32:48.930Z,12.57
2023-09-27T03:35:18.447Z,12.27
2023-09-27T03:37:48.236Z,13.30
2023-09-27T03:40:20.599Z,12.23
2023-09-27T03:42:49.058Z,12.02
2023-09-27T03:45:18.580Z,14.40
2023-09-27T03:47:49.685Z,13.95
2023-09-27T03:50:18.669Z,13.48
2023-09-27T03:52:47.316Z,12.65
2023-09-27T03:55:15.882Z,13.85
2023-09-27T03:57:45.171Z,13.00
2023-09-27T04:00:18.292Z,14.30
2023-09-27T04:02:49.037Z,12.23
2023-09-27T04:05:23.744Z,12.02
2023-09-27T04:07:52.564Z,12.40
2023-09-27T04:10:22.009Z,10.43
2023-09-27T04:12:50.455Z,14.55
2023-09-27T04:15:19.161Z,15.20
2023-09-27T04:17:49.145Z,13.98
2023-09-27T04:20:19.938Z,14.15
2023-09-27T04:22:50.159Z,13.70
2023-09-27T04:25:20.168Z,15.13
2023-09-27T04:27:51.995Z,15.55
2023-09-27T04:30:22.912Z,15.20
2023-09-27T04:32:54.057Z,12.50
2023-09-27T04:35:23.722Z,13.20
2023-09-27T04:37:52.464Z,13.15
2023-09-27T04:40:21.524Z,14.27
2023-09-27T04:42:50.245Z,12.82
2023-09-27T04:45:18.925Z,14.82
2023-09-27T04:47:47.618Z,13.77
2023-09-27T04:50:17.850Z,14.27
2023-09-27T04:52:46.647Z,13.48
2023-09-27T04:55:16.182Z,13.48
2023-09-27T04:57:44.813Z,14.35
2023-09-27T05:00:20.219Z,13.82
2023-09-27T05:02:49.567Z,11.20
2023-09-27T05:05:19.946Z,13.40
2023-09-27T05:07:49.487Z,14.25
2023-09-27T05:10:18.406Z,14.50
2023-09-27T05:12:48.198Z,12.80
2023-09-27T05:15:17.558Z,12.48
2023-09-27T05:17:46.221Z,13.02
2023-09-27T05:20:15.549Z,12.25
2023-09-27T05:22:45.517Z,14.95
2023-09-27T05:25:15.073Z,16.05
2023-09-27T05:27:43.726Z,14.88
2023-09-27T05:30:13.346Z,15.57
2023-09-27T05:32:43.709Z,14.52
2023-09-27T05:35:13.150Z,11.48
2023-09-27T05:37:44.675Z,13.10
2023-09-27T05:40:14.546Z,11.48
2023-09-27T05:42:43.648Z,9.82
2023-09-27T05:45:13.605Z,10.90
2023-09-27T05:47:43.089Z,10.75
2023-09-27T05:50:13.957Z,11.00
2023-09-27T05:52:45.120Z,10.02
2023-09-27T05:55:14.364Z,9.52
2023-09-27T05:57:43.178Z,10.55
2023-09-27T06:00:24.878Z,9.35
2023-09-27T06:02:53.884Z,8.93
2023-09-27T06:05:23.122Z,9.70
2023-09-27T06:07:54.089Z,8.95
2023-09-27T06:10:23.480Z,8.73
2023-09-27T06:12:52.108Z,8.52
2023-09-27T06:15:21.621Z,8.20
2023-09-27T06:17:51.159Z,9.05
2023-09-27T06:20:23.734Z,10.30
2023-09-27T06:22:54.923Z,10.52
2023-09-27T06:25:30.309Z,10.13
2023-09-27T06:27:59.108Z,9.57
2023-09-27T06:30:27.713Z,9.38
2023-09-27T06:32:56.461Z,10.85
2023-09-27T06:35:25.914Z,12.50
2023-09-27T06:37:56.043Z,9.57
2023-09-27T06:40:25.871Z,11.43
2023-09-27T06:42:56.242Z,11.63
2023-09-27T06:45:25.248Z,10.77
2023-09-27T06:47:53.946Z,13.13
2023-09-27T06:50:23.490Z,11.15
2023-09-27T06:52:57.398Z,10.90
2023-09-27T06:55:33.578Z,10.63
2023-09-27T06:58:02.235Z,11.88
2023-09-27T07:00:30.922Z,11.77
2023-09-27T07:02:59.784Z,11.95
2023-09-27T07:05:28.497Z,12.00
2023-09-27T07:07:57.163Z,12.38
2023-09-27T07:10:26.501Z,10.38
2023-09-27T07:12:56.655Z,10.07
2023-09-27T07:15:25.212Z,10.95
2023-09-27T07:17:53.970Z,10.10
2023-09-27T07:20:28.679Z,11.85
2023-09-27T07:22:58.391Z,10.85
2023-09-27T07:25:29.951Z,10.95
2023-09-27T07:28:00.135Z,11.05
2023-09-27T07:30:28.750Z,9.85
2023-09-27T07:32:57.932Z,9.88
2023-09-27T07:35:30.302Z,10.07
2023-09-27T07:38:00.196Z,9.95
2023-09-27T07:40:29.304Z,10.32
2023-09-27T07:42:59.962Z,11.40
2023-09-27T07:45:32.050Z,10.25
2023-09-27T07:48:01.112Z,10.57
2023-09-27T07:50:32.864Z,10.07
2023-09-27T07:53:04.801Z,10.60
2023-09-27T07:55:33.756Z,11.15
2023-09-27T07:58:05.161Z,11.27
2023-09-27T08:00:34.717Z,9.18
2023-09-27T08:03:04.325Z,9.00
2023-09-27T08:05:33.095Z,8.85
2023-09-27T08:08:01.672Z,9.60
2023-09-27T08:10:30.806Z,8.95
2023-09-27T08:12:59.373Z,8.48
2023-09-27T08:15:29.880Z,9.52
2023-09-27T08:17:58.826Z,9.10
2023-09-27T08:20:28.178Z,8.48
2023-09-27T08:22:57.303Z,8.75
2023-09-27T08:25:26.239Z,8.70
2023-09-27T08:27:54.780Z,8.70
2023-09-27T08:30:23.701Z,8.82
2023-09-27T08:32:53.879Z,9.50
2023-09-27T08:35:22.705Z,8.80
2023-09-27T08:37:51.376Z,8.48
2023-09-27T08:40:20.610Z,7.05
2023-09-27T08:42:52.605Z,10.38
2023-09-27T08:45:24.585Z,9.30
2023-09-27T08:47:55.673Z,10.43
2023-09-27T08:50:25.306Z,8.57
2023-09-27T08:52:54.349Z,9.38
2023-09-27T08:55:23.241Z,8.82
2023-09-27T08:57:53.619Z,8.25
2023-09-27T09:00:28.091Z,9.13
2023-09-27T09:03:02.706Z,9.30
2023-09-27T09:05:32.996Z,9.18
2023-09-27T09:08:05.559Z,8.38
2023-09-27T09:10:34.892Z,8.57
2023-09-27T09:13:05.144Z,9.40
2023-09-27T09:15:38.034Z,8.88
2023-09-27T09:18:13.130Z,9.57
2023-09-27T09:20:56.053Z,9.70
2023-09-27T09:23:34.661Z,9.07
2023-09-27T09:26:07.317Z,9.18
2023-09-27T09:28:37.745Z,9.25
2023-09-27T09:31:07.049Z,9.10
2023-09-27T09:33:39.712Z,9.88
2023-09-27T09:36:08.727Z,8.82
2023-09-27T09:38:37.455Z,8.02
2023-09-27T09:41:06.442Z,9.27
2023-09-27T09:43:36.772Z,7.60
2023-09-27T09:46:07.811Z,7.68
2023-09-27T09:48:39.976Z,8.30
2023-09-27T09:51:10.135Z,9.85
2023-09-27T09:53:44.197Z,9.48
2023-09-27T09:58:56.886Z,9.90
2023-09-27T10:01:30.966Z,9.52
2023-09-27T10:04:05.514Z,8.10
2023-09-27T10:09:29.663Z,8.10
2023-09-27T10:11:58.942Z,8.07
2023-09-27T10:14:27.881Z,7.95
2023-09-27T10:16:56.528Z,7.93
2023-09-27T10:19:31.013Z,7.40
2023-09-27T10:22:08.969Z,7.53
2023-09-27T10:24:44.581Z,7.13
2023-09-27T10:27:13.225Z,7.93
2023-09-27T10:29:57.427Z,7.15
2023-09-27T10:32:26.133Z,7.65
2023-09-27T10:34:56.076Z,8.15
2023-09-27T10:38:00.690Z,7.43
2023-09-27T10:40:29.425Z,6.90
2023-09-27T10:42:57.930Z,7.70
2023-09-27T10:45:26.885Z,7.82
2023-09-27T10:47:56.501Z,7.65
2023-09-27T10:50:31.902Z,6.53
2023-09-27T10:53:02.043Z,6.88
2023-09-27T10:55:41.412Z,6.85
2023-09-27T10:58:12.425Z,7.20
2023-09-27T11:00:53.611Z,6.97
2023-09-27T11:03:23.090Z,6.15
2023-09-27T11:05:53.708Z,6.57
2023-09-27T11:08:24.534Z,7.30
2023-09-27T11:10:58.154Z,6.28
2023-09-27T11:13:30.761Z,5.75
2023-09-27T11:16:10.013Z,5.90
2023-09-27T11:18:45.705Z,6.50
2023-09-27T11:21:16.639Z,6.07
2023-09-27T11:23:55.915Z,6.30
2023-09-27T11:26:26.213Z,6.78
2023-09-27T11:28:59.992Z,6.40
2023-09-27T11:31:31.050Z,5.78
2023-09-27T11:34:17.072Z,5.35
2023-09-27T11:36:49.274Z,6.28
2023-09-27T11:39:19.772Z,6.35
2023-09-27T11:41:49.030Z,6.53
2023-09-27T11:44:18.759Z,6.57
2023-09-27T11:46:48.818Z,5.70
2023-09-27T11:49:19.357Z,5.72
2023-09-27T11:51:49.280Z,5.40
2023-09-27T11:54:17.923Z,5.18
2023-09-27T11:56:48.354Z,5.93
2023-09-27T11:59:17.041Z,6.13
2023-09-27T12:01:45.735Z,5.22
2023-09-27T12:04:14.525Z,7.22
2023-09-27T12:06:43.600Z,5.30
2023-09-27T12:09:13.765Z,5.25
2023-09-27T12:11:42.501Z,5.10
2023-09-27T12:14:11.058Z,6.03
2023-09-27T12:16:39.718Z,5.88
2023-09-27T12:19:08.495Z,6.10
2023-09-27T12:21:38.486Z,5.78
2023-09-27T12:24:07.916Z,7.05
2023-09-27T12:26:37.989Z,5.72
2023-09-27T12:29:06.612Z,6.13
2023-09-27T12:31:35.167Z,5.18
2023-09-27T12:34:03.766Z,6.00
2023-09-27T12:36:32.297Z,5.63
2023-09-27T12:39:00.849Z,5.63
2023-09-27T12:41:29.467Z,5.43
2023-09-27T12:43:59.403Z,6.22
2023-09-27T12:46:29.869Z,5.00
2023-09-27T12:48:58.411Z,5.93
2023-09-27T12:51:35.316Z,6.13
2023-09-27T12:54:11.672Z,5.03
2023-09-27T12:56:40.431Z,6.30
2023-09-27T12:59:10.300Z,6.20
2023-09-27T13:01:40.634Z,5.82
2023-09-27T13:04:10.718Z,5.68
2023-09-27T13:06:39.513Z,4.75
2023-09-27T13:09:08.242Z,5.45
2023-09-27T13:11:36.960Z,5.57
2023-09-27T13:14:05.704Z,5.93
2023-09-27T13:16:35.557Z,5.50
2023-09-27T13:19:04.231Z,5.75
2023-09-27T13:21:32.854Z,6.13
2023-09-27T13:24:01.342Z,5.50
2023-09-27T13:26:29.843Z,6.28
2023-09-27T13:28:58.401Z,6.28
2023-09-27T13:31:33.192Z,5.55
2023-09-27T13:34:10.271Z,5.82
2023-09-27T13:36:42.559Z,5.68
2023-09-27T13:39:15.585Z,6.13
2023-09-27T13:41:45.758Z,6.28
2023-09-27T13:44:15.445Z,5.70
2023-09-27T13:46:45.598Z,5.78
2023-09-27T13:49:15.570Z,6.20
2023-09-27T13:51:44.725Z,6.05
2023-09-27T13:54:15.549Z,6.07
2023-09-27T13:56:44.097Z,5.65
2023-09-27T13:59:12.632Z,5.57
2023-09-27T14:01:41.394Z,7.05
2023-09-27T14:04:09.995Z,6.18
2023-09-27T14:06:40.138Z,6.15
2023-09-27T14:09:08.693Z,5.35
2023-09-27T14:11:37.652Z,5.45
2023-09-27T14:14:06.324Z,5.40
2023-09-27T14:16:34.887Z,6.05
2023-09-27T14:19:03.572Z,5.03
2023-09-27T14:21:34.044Z,5.50
2023-09-27T14:24:04.743Z,5.50
2023-09-27T14:26:33.329Z,4.97
2023-09-27T14:29:01.922Z,5.22
2023-09-27T14:31:30.460Z,5.78
2023-09-27T14:34:02.074Z,5.78
2023-09-27T14:36:31.731Z,5.07
2023-09-27T14:39:00.730Z,5.55
2023-09-27T14:41:30.666Z,5.75
2023-09-27T14:44:03.425Z,4.95
2023-09-27T14:46:34.938Z,4.35
2023-09-27T14:49:04.293Z,4.97
2023-09-27T14:51:32.826Z,5.40
2023-09-27T14:54:01.460Z,5.50
2023-09-27T14:56:31.413Z,5.85
2023-09-27T14:59:02.259Z,4.85
2023-09-27T15:01:31.399Z,5.32
2023-09-27T15:04:00.052Z,5.07
2023-09-27T15:06:28.755Z,5.80
2023-09-27T15:08:57.255Z,6.18
2023-09-27T15:11:26.459Z,5.55
2023-09-27T15:13:59.242Z,5.35
2023-09-27T15:16:27.953Z,5.43
2023-09-27T15:18:56.526Z,5.45
2023-09-27T15:21:25.091Z,6.03
2023-09-27T15:23:54.001Z,5.28
2023-09-27T15:26:22.719Z,5.45
2023-09-27T15:28:51.261Z,5.47
2023-09-27T15:31:21.282Z,5.50
2023-09-27T15:33:50.642Z,5.10
2023-09-27T15:36:19.194Z,9.73
2023-09-27T15:38:47.718Z,6.82
2023-09-27T15:41:19.621Z,5.28
2023-09-27T15:43:49.311Z,5.78
2023-09-27T15:46:19.621Z,5.53
2023-09-27T15:48:49.823Z,5.82
2023-09-27T15:51:18.339Z,5.55
2023-09-27T15:53:46.844Z,5.63
2023-09-27T15:56:15.420Z,5.85
2023-09-27T15:58:43.943Z,7.10
2023-09-27T16:01:13.253Z,5.85
2023-09-27T16:03:41.943Z,5.85
2023-09-27T16:06:11.883Z,4.88
2023-09-27T16:08:40.457Z,6.00
2023-09-27T16:11:08.947Z,5.32
2023-09-27T16:13:37.573Z,5.15
2023-09-27T16:16:06.441Z,5.47
2023-09-27T16:18:34.995Z,6.15
2023-09-27T16:21:03.546Z,5.93
2023-09-27T16:23:33.520Z,6.07
2023-09-27T16:26:02.079Z,5.32
2023-09-27T16:28:30.676Z,4.90
2023-09-27T16:30:59.823Z,5.68
2023-09-27T16:33:28.555Z,5.45
2023-09-27T16:35:57.247Z,5.00
2023-09-27T16:38:26.851Z,5.60
2023-09-27T16:40:57.195Z,4.28
2023-09-27T16:43:26.304Z,5.90
2023-09-27T16:45:55.104Z,5.10
2023-09-27T16:48:24.928Z,5.95
2023-09-27T16:50:54.884Z,5.07
2023-09-27T16:53:23.463Z,5.05
2023-09-27T16:55:52.491Z,6.30
2023-09-27T16:58:23.448Z,5.20
2023-09-27T17:00:53.339Z,5.60
2023-09-27T17:03:22.998Z,5.22
2023-09-27T17:05:53.292Z,4.93
2023-09-27T17:08:22.248Z,4.95
2023-09-27T17:10:51.658Z,4.78
2023-09-27T17:13:23.815Z,5.00
2023-09-27T17:15:53.811Z,5.35
2023-09-27T17:18:23.723Z,5.00
2023-09-27T17:20:53.601Z,5.10
2023-09-27T17:23:22.848Z,4.63
2023-09-27T17:25:54.219Z,4.32
2023-09-27T17:28:26.939Z,4.47
2023-09-27T17:30:59.012Z,4.93
2023-09-27T17:33:29.377Z,4.68
2023-09-27T17:36:03.116Z,4.88
2023-09-27T17:38:33.272Z,4.65
2023-09-27T17:41:03.324Z,5.38
2023-09-27T17:43:35.660Z,5.63
2023-09-27T17:46:21.341Z,5.07
2023-09-27T17:48:52.316Z,6.07
2023-09-27T17:51:23.225Z,5.72
2023-09-27T17:53:54.056Z,4.78
2023-09-27T17:56:30.101Z,4.15
2023-09-27T17:59:02.213Z,4.30
2023-09-27T18:01:33.879Z,5.75
2023-09-27T18:04:04.671Z,4.93
2023-09-27T18:06:36.312Z,4.43
2023-09-27T18:09:07.874Z,4.70
2023-09-27T18:11:37.302Z,4.88
2023-09-27T18:14:10.474Z,5.10
2023-09-27T18:16:42.212Z,4.63
2023-09-27T18:19:14.731Z,5.18
2023-09-27T18:21:47.183Z,5.50
2023-09-27T18:24:17.188Z,4.95
2023-09-27T18:26:48.580Z,5.10
2023-09-27T18:29:19.616Z,5.38
2023-09-27T18:31:50.747Z,5.32
2023-09-27T18:34:21.862Z,5.13
2023-09-27T18:36:54.505Z,6.20
2023-09-27T18:39:26.132Z,5.43
2023-09-27T18:41:58.636Z,5.13
2023-09-27T18:44:32.170Z,5.68
2023-09-27T18:47:04.038Z,5.20
2023-09-27T18:49:34.741Z,4.60
2023-09-27T18:52:07.071Z,4.90
2023-09-27T18:54:37.789Z,5.78
2023-09-27T18:57:10.965Z,4.97
2023-09-27T18:59:43.904Z,5.50
2023-09-27T19:02:16.702Z,5.60
2023-09-27T19:04:47.538Z,5.07
2023-09-27T19:07:20.257Z,6.30
2023-09-27T19:09:51.099Z,4.70
2023-09-27T19:12:23.793Z,4.85
2023-09-27T19:15:00.096Z,5.35
2023-09-27T19:17:32.544Z,5.35
2023-09-27T19:20:07.304Z,4.50
2023-09-27T19:22:42.180Z,5.18
2023-09-27T19:25:14.375Z,4.63
2023-09-27T19:27:43.861Z,5.65
2023-09-27T19:30:17.382Z,5.20
2023-09-27T19:32:48.355Z,5.07
2023-09-27T19:35:19.949Z,4.72
2023-09-27T19:37:52.754Z,4.78
2023-09-27T19:40:24.870Z,6.15
2023-09-27T19:42:56.495Z,4.10
2023-09-27T19:45:30.219Z,5.28
2023-09-27T19:47:59.717Z,5.20
2023-09-27T19:50:29.501Z,4.85
2023-09-27T19:52:59.842Z,5.45
2023-09-27T19:55:32.431Z,5.00
2023-09-27T19:58:03.036Z,5.15
2023-09-27T20:00:34.100Z,4.45
2023-09-27T20:03:04.728Z,4.95
2023-09-27T20:05:34.613Z,5.70
2023-09-27T20:08:04.475Z,5.90
2023-09-27T20:10:35.009Z,4.13
2023-09-27T20:13:06.323Z,5.03
2023-09-27T20:15:37.813Z,4.20
2023-09-27T20:18:08.401Z,5.40
2023-09-27T20:20:37.856Z,5.18
2023-09-27T20:23:07.782Z,4.70
2023-09-27T20:25:37.390Z,4.95
2023-09-27T20:28:08.017Z,4.88
2023-09-27T20:30:38.955Z,4.32
2023-09-27T20:33:08.131Z,5.57
2023-09-27T20:35:38.002Z,5.45
2023-09-27T20:38:09.474Z,4.90
2023-09-27T20:40:38.618Z,6.03
2023-09-27T20:43:07.231Z,4.28
2023-09-27T20:45:37.288Z,4.53
2023-09-27T20:48:06.945Z,5.90
2023-09-27T20:50:35.528Z,5.97
2023-09-27T20:53:04.163Z,4.47
2023-09-27T20:55:32.928Z,10.43
2023-09-27T20:58:02.991Z,5.68
2023-09-27T21:00:31.829Z,4.80
2023-09-27T21:03:02.691Z,6.35
2023-09-27T21:05:34.035Z,5.20
2023-09-27T21:08:02.631Z,4.93
2023-09-27T21:10:31.228Z,5.32
2023-09-27T21:13:00.173Z,6.10
2023-09-27T21:15:28.758Z,5.47
2023-09-27T21:17:57.354Z,5.32
2023-09-27T21:20:27.254Z,5.10
2023-09-27T21:22:55.737Z,6.10
2023-09-27T21:25:24.473Z,4.63
2023-09-27T21:27:52.954Z,4.38
2023-09-27T21:30:21.890Z,4.55
2023-09-27T21:32:50.873Z,4.88
2023-09-27T21:35:19.482Z,4.68
2023-09-27T21:37:49.637Z,6.03
2023-09-27T21:40:19.262Z,6.60
2023-09-27T21:42:47.788Z,4.93
2023-09-27T21:45:16.487Z,4.57
2023-09-27T21:47:45.033Z,5.72
2023-09-27T21:50:14.466Z,4.88
2023-09-27T21:52:43.036Z,4.65
2023-09-27T21:55:13.319Z,12.23
2023-09-27T21:57:41.985Z,7.25
2023-09-27T22:00:21.407Z,5.88
2023-09-27T22:02:50.199Z,6.53
2023-09-27T22:05:20.638Z,5.20
2023-09-27T22:07:49.193Z,4.45
2023-09-27T22:10:19.749Z,4.75
2023-09-27T22:12:49.761Z,5.03
2023-09-27T22:15:18.556Z,4.57
2023-09-27T22:17:50.615Z,5.57
2023-09-27T22:20:20.025Z,5.15
2023-09-27T22:22:49.278Z,3.88
2023-09-27T22:25:20.224Z,5.18
2023-09-27T22:27:50.283Z,4.65
2023-09-27T22:30:19.786Z,4.70
2023-09-27T22:32:50.981Z,5.57
2023-09-27T22:35:27.120Z,5.47
2023-09-27T22:37:57.160Z,4.28
2023-09-27T22:40:27.203Z,5.35
2023-09-27T22:42:56.641Z,5.95
2023-09-27T22:45:36.194Z,4.40
2023-09-27T22:48:06.780Z,6.55
2023-09-27T22:50:45.845Z,5.35
2023-09-27T22:53:15.824Z,6.30
2023-09-27T22:55:51.330Z,6.03
2023-09-27T22:58:20.434Z,5.30
2023-09-27T23:00:58.227Z,4.68
2023-09-27T23:03:29.891Z,6.28
2023-09-27T23:06:02.561Z,5.53
2023-09-27T23:08:38.981Z,4.72
2023-09-27T23:11:10.332Z,6.05
2023-09-27T23:13:45.813Z,6.00
2023-09-27T23:16:37.504Z,5.93
2023-09-27T23:19:06.378Z,5.95
2023-09-27T23:21:34.255Z,5.70
2023-09-27T23:24:26.761Z,6.55
2023-09-27T23:27:05.671Z,5.82
2023-09-27T23:29:37.599Z,5.90
2023-09-27T23:32:23.972Z,5.28
2023-09-27T23:34:55.087Z,5.45
2023-09-27T23:37:32.296Z,5.10
2023-09-27T23:40:01.785Z,4.88
2023-09-27T23:42:35.875Z,5.68
2023-09-27T23:45:10.563Z,5.40
2023-09-27T23:47:44.988Z,5.80
2023-09-27T23:50:17.146Z,5.60
2023-09-27T23:52:47.991Z,5.82
2023-09-27T23:55:18.685Z,6.30
2023-09-27T23:57:49.283Z,6.05
